Time;durP1;ratioP1;P1;durP2;ratioP2;P2;SDS_P1;SDS_P2;PMS_P1;PMS_P2;Temp;Humidity;BMP_temperature;BMP_pressure;BME280_temperature;BME280_humidity;BME280_pressure;Samples;Min_cycle;Max_cycle;Signal;HPM_P1;HPM_P2
2022/04/28 00:00:30;;;;;;;;;41.50;30.75;;;;;;;;5051798;28;45509;-72
2022/04/28 00:02:56;;;;;;;;;32.00;30.00;;;;;;;;5053773;28;45372;-72
2022/04/28 00:05:21;;;;;;;;;33.75;32.00;;;;;;;;5054298;28;45497;-72
2022/04/28 00:07:47;;;;;;;;;35.00;29.50;;;;;;;;5052665;28;46066;-72
2022/04/28 00:10:12;;;;;;;;;34.75;31.00;;;;;;;;5048836;28;45447;-72
2022/04/28 00:12:38;;;;;;;;;38.00;33.50;;;;;;;;5052485;28;45424;-72
2022/04/28 00:15:03;;;;;;;;;36.25;34.00;;;;;;;;5039297;28;45502;-72
2022/04/28 00:17:29;;;;;;;;;38.75;33.25;;;;;;;;5053202;28;45330;-72
2022/04/28 00:19:54;;;;;;;;;38.50;32.50;;;;;;;;5052125;28;45462;-72
2022/04/28 00:22:21;;;;;;;;;43.75;34.25;;;;;;;;5051676;28;45346;-72
2022/04/28 00:24:46;;;;;;;;;43.00;32.75;;;;;;;;5047741;28;45320;-72
2022/04/28 00:27:11;;;;;;;;;37.25;33.00;;;;;;;;5039122;28;47009;-72
2022/04/28 00:29:36;;;;;;;;;42.50;32.75;;;;;;;;5049447;28;45420;-72
2022/04/28 00:32:02;;;;;;;;;34.50;31.50;;;;;;;;5052610;28;45386;-72
2022/04/28 00:34:27;;;;;;;;;36.00;31.75;;;;;;;;5051961;28;45558;-71
2022/04/28 00:36:53;;;;;;;;;41.50;34.25;;;;;;;;5046645;28;46099;-72
2022/04/28 00:39:18;;;;;;;;;35.00;31.25;;;;;;;;5047519;28;45517;-72
2022/04/28 00:41:43;;;;;;;;;39.00;34.00;;;;;;;;5054764;28;45329;-72
2022/04/28 00:44:10;;;;;;;;;39.25;34.25;;;;;;;;5052378;28;45625;-72
2022/04/28 00:46:36;;;;;;;;;35.50;32.75;;;;;;;;5053531;28;47174;-72
2022/04/28 00:51:45;;;;;;;;;35.75;32.25;;;;;;;;5052247;28;45724;-69
2022/04/28 00:54:10;;;;;;;;;37.50;31.00;;;;;;;;5052653;28;45280;-72
2022/04/28 00:56:36;;;;;;;;;40.00;33.00;;;;;;;;5054432;28;47400;-72
2022/04/28 00:59:02;;;;;;;;;31.75;30.75;;;;;;;;5052173;28;45335;-72
2022/04/28 01:01:28;;;;;;;;;36.75;31.75;;;;;;;;5052679;28;45289;-71
2022/04/28 01:03:53;;;;;;;;;41.50;35.25;;;;;;;;5052474;28;45399;-70
2022/04/28 01:06:18;;;;;;;;;36.00;32.00;;;;;;;;5052043;28;46374;-73
2022/04/28 01:08:43;;;;;;;;;37.00;32.50;;;;;;;;5054554;28;45410;-71
2022/04/28 01:11:09;;;;;;;;;39.50;33.00;;;;;;;;5047986;28;45462;-72
2022/04/28 01:13:34;;;;;;;;;38.25;33.25;;;;;;;;5052960;28;45406;-72
2022/04/28 01:15:59;;;;;;;;;41.75;34.50;;;;;;;;5055395;28;45465;-72
2022/04/28 01:18:24;;;;;;;;;40.25;35.50;;;;;;;;5054817;28;45455;-72
2022/04/28 01:20:50;;;;;;;;;36.50;34.75;;;;;;;;5052140;28;45399;-71
2022/04/28 01:23:15;;;;;;;;;31.25;29.50;;;;;;;;5053131;28;45345;-71
2022/04/28 01:25:41;;;;;;;;;35.50;29.25;;;;;;;;5053005;28;45318;-71
2022/04/28 01:28:06;;;;;;;;;34.00;29.50;;;;;;;;5051985;28;46338;-71
2022/04/28 01:30:33;;;;;;;;;35.75;32.50;;;;;;;;5054678;28;45500;-71
2022/04/28 01:32:59;;;;;;;;;34.75;31.50;;;;;;;;5054957;28;45289;-71
2022/04/28 01:35:24;;;;;;;;;36.75;30.50;;;;;;;;5055905;28;46246;-71
2022/04/28 01:37:50;;;;;;;;;34.25;30.50;;;;;;;;5049490;28;45513;-71
2022/04/28 01:40:16;;;;;;;;;38.50;32.00;;;;;;;;5052669;28;45357;-71
2022/04/28 01:42:42;;;;;;;;;37.25;32.00;;;;;;;;5055660;28;45504;-71
2022/04/28 01:45:07;;;;;;;;;34.00;30.75;;;;;;;;5055233;28;46182;-71
2022/04/28 01:47:36;;;;;;;;;31.75;29.75;;;;;;;;5057111;28;45418;-71
2022/04/28 01:50:03;;;;;;;;;32.75;29.00;;;;;;;;5055034;28;45678;-71
2022/04/28 01:55:12;;;;;;;;;27.50;27.00;;;;;;;;5054856;28;45355;-72
2022/04/28 01:57:39;;;;;;;;;29.50;28.75;;;;;;;;5037062;28;45434;-71
2022/04/28 02:00:06;;;;;;;;;29.00;27.00;;;;;;;;5054878;28;45304;-72
2022/04/28 02:02:31;;;;;;;;;29.25;25.50;;;;;;;;5056900;28;45482;-72
2022/04/28 02:04:59;;;;;;;;;30.75;29.00;;;;;;;;5054303;28;45559;-71
2022/04/28 02:07:27;;;;;;;;;31.50;27.50;;;;;;;;5054001;28;45466;-71
2022/04/28 02:09:53;;;;;;;;;38.00;32.75;;;;;;;;5054928;28;45289;-71
2022/04/28 02:12:18;;;;;;;;;37.00;30.25;;;;;;;;5054532;28;45482;-72
2022/04/28 02:14:43;;;;;;;;;34.25;29.25;;;;;;;;5053498;28;46083;-72
2022/04/28 02:17:09;;;;;;;;;32.75;29.25;;;;;;;;5047675;28;45600;-72
2022/04/28 02:19:35;;;;;;;;;27.25;26.00;;;;;;;;5051916;28;45546;-72
2022/04/28 02:22:00;;;;;;;;;35.50;30.00;;;;;;;;5052192;28;45593;-72
2022/04/28 02:24:26;;;;;;;;;32.25;30.75;;;;;;;;5053259;28;45398;-72
2022/04/28 02:26:51;;;;;;;;;28.25;27.75;;;;;;;;5054219;28;45445;-71
2022/04/28 02:29:16;;;;;;;;;34.25;28.75;;;;;;;;5048684;28;45451;-71
2022/04/28 02:31:41;;;;;;;;;34.25;29.50;;;;;;;;5049030;28;45386;-72
2022/04/28 02:34:07;;;;;;;;;33.00;31.25;;;;;;;;5050294;28;47554;-72
2022/04/28 02:36:32;;;;;;;;;29.50;26.25;;;;;;;;5052507;28;45575;-71
2022/04/28 02:38:57;;;;;;;;;34.00;26.75;;;;;;;;5049661;28;45492;-71
2022/04/28 02:41:22;;;;;;;;;34.00;28.00;;;;;;;;5045288;28;45442;-71
2022/04/28 02:43:48;;;;;;;;;41.33;33.00;;;;;;;;5048680;28;46135;-72
2022/04/28 02:46:14;;;;;;;;;31.00;26.25;;;;;;;;5050623;28;45527;-71
2022/04/28 02:48:39;;;;;;;;;32.00;30.75;;;;;;;;5053395;28;45410;-72
2022/04/28 02:51:05;;;;;;;;;32.75;28.50;;;;;;;;5053574;28;45433;-72
2022/04/28 02:53:30;;;;;;;;;32.25;28.50;;;;;;;;5056213;28;45443;-72
2022/04/28 02:55:55;;;;;;;;;34.50;31.00;;;;;;;;5053898;28;46066;-71
2022/04/28 02:58:20;;;;;;;;;30.50;28.00;;;;;;;;5054099;28;45335;-72
2022/04/28 03:00:45;;;;;;;;;41.00;33.00;;;;;;;;5054008;28;45578;-72
2022/04/28 03:03:11;;;;;;;;;33.75;30.75;;;;;;;;5053914;28;46249;-72
2022/04/28 03:10:46;;;;;;;;;34.75;31.25;;;;;;;;5055917;28;45374;-70
2022/04/28 03:11:05;;;;;;;;;31.00;27.00;;;;;;;;5053987;28;45362;-72
2022/04/28 03:13:32;;;;;;;;;28.00;25.50;;;;;;;;5053787;28;45467;-72
2022/04/28 03:15:57;;;;;;;;;35.00;29.00;;;;;;;;5053802;28;45295;-72
2022/04/28 03:18:22;;;;;;;;;33.25;31.25;;;;;;;;5053003;28;45371;-72
2022/04/28 03:20:47;;;;;;;;;36.00;29.00;;;;;;;;5039334;28;45312;-70
2022/04/28 03:23:14;;;;;;;;;38.00;32.00;;;;;;;;5052510;28;46204;-70
2022/04/28 03:25:39;;;;;;;;;33.75;31.00;;;;;;;;5044233;28;45565;-72
2022/04/28 03:28:05;;;;;;;;;35.00;32.75;;;;;;;;5043056;28;45453;-71
2022/04/28 03:30:30;;;;;;;;;30.00;25.75;;;;;;;;5042930;28;45541;-72
2022/04/28 03:32:55;;;;;;;;;37.00;29.00;;;;;;;;5053295;28;46163;-72
2022/04/28 03:35:21;;;;;;;;;33.50;25.00;;;;;;;;5052070;28;45925;-71
2022/04/28 03:37:49;;;;;;;;;33.75;30.00;;;;;;;;5045162;28;45254;-71
2022/04/28 03:40:14;;;;;;;;;39.25;31.00;;;;;;;;5048168;28;45481;-72
2022/04/28 03:42:39;;;;;;;;;35.25;31.50;;;;;;;;5053377;28;47109;-72
2022/04/28 03:45:05;;;;;;;;;36.00;31.75;;;;;;;;5053097;28;45517;-72
2022/04/28 03:47:35;;;;;;;;;37.25;32.50;;;;;;;;5055392;28;45335;-72
2022/04/28 03:50:00;;;;;;;;;41.50;33.75;;;;;;;;5051133;28;45560;-71
2022/04/28 03:52:25;;;;;;;;;38.25;32.50;;;;;;;;5053096;28;46961;-72
2022/04/28 03:54:51;;;;;;;;;37.50;32.25;;;;;;;;5048356;28;45481;-72
2022/04/28 03:57:16;;;;;;;;;39.75;31.25;;;;;;;;5051347;28;45524;-71
2022/04/28 03:59:41;;;;;;;;;40.75;33.75;;;;;;;;5050284;28;45509;-71
2022/04/28 04:02:06;;;;;;;;;36.00;32.00;;;;;;;;5044451;28;46106;-72
2022/04/28 04:04:31;;;;;;;;;36.50;32.00;;;;;;;;5046246;28;45471;-72
2022/04/28 04:06:57;;;;;;;;;38.00;32.75;;;;;;;;5052419;28;45472;-72
2022/04/28 04:09:23;;;;;;;;;43.75;33.50;;;;;;;;5047815;28;45524;-72
2022/04/28 04:11:48;;;;;;;;;33.75;31.50;;;;;;;;5054391;28;46937;-72
2022/04/28 04:14:14;;;;;;;;;39.00;30.75;;;;;;;;5052360;28;45506;-71
2022/04/28 04:16:39;;;;;;;;;47.25;34.75;;;;;;;;5051860;28;45473;-73
2022/04/28 04:19:04;;;;;;;;;37.00;30.75;;;;;;;;5050021;28;45384;-72
2022/04/28 04:21:29;;;;;;;;;35.25;32.25;;;;;;;;5052660;28;46189;-70
2022/04/28 04:23:54;;;;;;;;;35.75;33.25;;;;;;;;5048740;28;45344;-72
2022/04/28 04:26:20;;;;;;;;;41.25;34.00;;;;;;;;5053839;28;45417;-72
2022/04/28 04:28:45;;;;;;;;;40.50;33.50;;;;;;;;5052014;28;45522;-72
2022/04/28 04:33:54;;;;;;;;;38.50;33.25;;;;;;;;5052155;28;45773;-72
2022/04/28 04:36:20;;;;;;;;;41.00;34.25;;;;;;;;5052185;28;45382;-72
2022/04/28 04:38:45;;;;;;;;;35.50;32.75;;;;;;;;5054326;28;45354;-72
2022/04/28 04:41:11;;;;;;;;;38.75;34.00;;;;;;;;5038472;28;47118;-72
2022/04/28 04:43:37;;;;;;;;;40.75;35.25;;;;;;;;5052366;28;45292;-72
2022/04/28 04:46:02;;;;;;;;;33.50;31.50;;;;;;;;5052620;28;45480;-72
2022/04/28 04:48:28;;;;;;;;;39.75;34.75;;;;;;;;5056320;28;45519;-72
2022/04/28 04:50:54;;;;;;;;;39.75;34.00;;;;;;;;5057056;28;45999;-72
2022/04/28 04:53:20;;;;;;;;;40.50;35.75;;;;;;;;5056682;28;45644;-72
2022/04/28 04:55:45;;;;;;;;;43.25;37.00;;;;;;;;5055844;28;45384;-72
2022/04/28 04:58:10;;;;;;;;;44.25;35.75;;;;;;;;5055222;28;45225;-72
2022/04/28 05:00:35;;;;;;;;;41.75;34.25;;;;;;;;5054581;28;47202;-72
2022/04/28 05:03:00;;;;;;;;;45.25;32.75;;;;;;;;5055637;28;45444;-72
2022/04/28 05:05:26;;;;;;;;;40.75;34.25;;;;;;;;5057257;28;45346;-72
2022/04/28 05:07:51;;;;;;;;;43.00;35.50;;;;;;;;5055168;28;45444;-72
2022/04/28 05:10:16;;;;;;;;;42.75;35.75;;;;;;;;5053690;28;45358;-72
2022/04/28 05:12:41;;;;;;;;;43.00;36.00;;;;;;;;5055487;28;45378;-71
2022/04/28 05:15:07;;;;;;;;;47.00;36.00;;;;;;;;5052795;28;45288;-72
2022/04/28 05:17:32;;;;;;;;;44.75;37.75;;;;;;;;5055759;28;45549;-72
2022/04/28 05:19:58;;;;;;;;;41.25;36.25;;;;;;;;5055033;28;46090;-71
2022/04/28 05:22:26;;;;;;;;;44.25;37.50;;;;;;;;5058555;28;45285;-72
2022/04/28 05:24:51;;;;;;;;;44.00;37.75;;;;;;;;5063987;28;45499;-71
2022/04/28 05:27:16;;;;;;;;;43.50;35.25;;;;;;;;5054814;28;45386;-72
2022/04/28 05:29:41;;;;;;;;;40.75;33.75;;;;;;;;5055383;28;47284;-72
2022/04/28 05:32:07;;;;;;;;;45.50;36.75;;;;;;;;5051305;28;45383;-72
2022/04/28 05:34:32;;;;;;;;;43.75;35.00;;;;;;;;5054821;28;45432;-71
2022/04/28 05:36:58;;;;;;;;;45.50;38.00;;;;;;;;5054723;28;45473;-71
2022/04/28 05:39:23;;;;;;;;;38.75;35.50;;;;;;;;5054440;28;47207;-71
2022/04/28 05:41:48;;;;;;;;;47.00;36.75;;;;;;;;5068207;27;45367;-72
2022/04/28 05:46:57;;;;;;;;;47.00;39.25;;;;;;;;5044027;28;45334;-71
2022/04/28 05:49:23;;;;;;;;;45.75;38.50;;;;;;;;5046144;28;45470;-71
2022/04/28 05:51:49;;;;;;;;;48.75;40.00;;;;;;;;5045375;28;45388;-71
2022/04/28 05:54:14;;;;;;;;;45.50;35.50;;;;;;;;5054410;28;45324;-70
2022/04/28 05:56:39;;;;;;;;;51.75;42.25;;;;;;;;5055852;28;45512;-71
2022/04/28 05:59:05;;;;;;;;;50.75;38.00;;;;;;;;5057777;28;45473;-72
2022/04/28 06:01:30;;;;;;;;;45.25;37.00;;;;;;;;5059073;27;45418;-69
2022/04/28 06:03:56;;;;;;;;;46.00;38.00;;;;;;;;5054032;28;45404;-68
2022/04/28 06:06:21;;;;;;;;;36.50;32.50;;;;;;;;5052937;28;45444;-71
2022/04/28 06:08:46;;;;;;;;;44.25;37.00;;;;;;;;5044216;28;46934;-70
2022/04/28 06:11:12;;;;;;;;;48.00;38.50;;;;;;;;5045982;28;45610;-70
2022/04/28 06:13:37;;;;;;;;;47.25;37.50;;;;;;;;5052571;28;45400;-73
2022/04/28 06:16:02;;;;;;;;;48.75;36.75;;;;;;;;5053629;28;45523;-73
2022/04/28 06:18:28;;;;;;;;;48.00;38.50;;;;;;;;5055143;28;46171;-73
2022/04/28 06:20:53;;;;;;;;;47.00;39.00;;;;;;;;5062033;27;45287;-73
2022/04/28 06:23:18;;;;;;;;;47.50;36.75;;;;;;;;5054422;28;45535;-72
2022/04/28 06:25:43;;;;;;;;;49.25;38.25;;;;;;;;5055186;28;45324;-74
2022/04/28 06:28:13;;;;;;;;;48.25;39.75;;;;;;;;5048804;28;46331;-72
2022/04/28 06:30:40;;;;;;;;;48.25;41.25;;;;;;;;5037702;28;45646;-72
2022/04/28 06:33:05;;;;;;;;;43.50;36.50;;;;;;;;5052358;28;45446;-73
2022/04/28 06:35:33;;;;;;;;;48.00;39.25;;;;;;;;5053180;28;45526;-72
2022/04/28 06:37:59;;;;;;;;;61.00;48.00;;;;;;;;5051175;28;45905;-72
2022/04/28 06:40:24;;;;;;;;;49.25;36.00;;;;;;;;5051195;28;45461;-73
2022/04/28 06:42:52;;;;;;;;;50.00;41.00;;;;;;;;5052322;28;45497;-73
2022/04/28 06:45:17;;;;;;;;;45.00;36.00;;;;;;;;5051099;28;45701;-72
2022/04/28 06:47:42;;;;;;;;;44.75;37.00;;;;;;;;5057175;28;46317;-73
2022/04/28 06:50:08;;;;;;;;;42.50;35.50;;;;;;;;5052336;28;45357;-71
2022/04/28 06:52:37;;;;;;;;;48.25;37.50;;;;;;;;5050106;28;45515;-71
2022/04/28 06:55:06;;;;;;;;;47.75;38.50;;;;;;;;5051853;28;45270;-71
2022/04/28 06:57:31;;;;;;;;;46.00;37.75;;;;;;;;5052211;28;46150;-72
2022/04/28 06:59:57;;;;;;;;;44.25;36.00;;;;;;;;5052551;28;45366;-71
2022/04/28 07:02:22;;;;;;;;;43.25;35.50;;;;;;;;5053605;28;45548;-70
2022/04/28 07:04:48;;;;;;;;;44.25;37.00;;;;;;;;5051742;28;45484;-72
2022/04/28 07:07:13;;;;;;;;;49.75;39.25;;;;;;;;5051254;28;46620;-71
2022/04/28 07:09:39;;;;;;;;;45.25;38.50;;;;;;;;5051160;28;45334;-69
2022/04/28 07:12:04;;;;;;;;;34.00;31.50;;;;;;;;5051508;28;45385;-70
2022/04/28 07:14:29;;;;;;;;;46.25;39.25;;;;;;;;5052372;28;45627;-72
2022/04/28 07:16:54;;;;;;;;;49.50;39.50;;;;;;;;5050309;28;47533;-72
2022/04/28 07:19:20;;;;;;;;;53.00;40.50;;;;;;;;5052282;28;45453;-73
2022/04/28 07:21:45;;;;;;;;;50.25;39.50;;;;;;;;5053160;28;45336;-73
2022/04/28 07:24:10;;;;;;;;;48.25;39.00;;;;;;;;5032908;28;45678;-71
2022/04/28 07:26:35;;;;;;;;;49.25;40.25;;;;;;;;5053411;28;46299;-72
2022/04/28 07:29:01;;;;;;;;;41.50;36.50;;;;;;;;5051678;28;45468;-73
2022/04/28 07:31:26;;;;;;;;;50.75;42.25;;;;;;;;5038064;28;45488;-72
2022/04/28 07:33:52;;;;;;;;;46.50;38.00;;;;;;;;5051280;28;45503;-72
2022/04/28 07:36:17;;;;;;;;;49.75;40.50;;;;;;;;5052324;28;45927;-73
2022/04/28 07:38:44;;;;;;;;;46.00;39.75;;;;;;;;5052648;28;45541;-76
2022/04/28 07:41:09;;;;;;;;;47.00;40.00;;;;;;;;5038302;28;45509;-71
2022/04/28 07:43:35;;;;;;;;;49.50;41.00;;;;;;;;5051336;28;45642;-72
2022/04/28 07:46:00;;;;;;;;;45.50;37.50;;;;;;;;5050843;28;46062;-70
2022/04/28 07:48:25;;;;;;;;;52.75;42.00;;;;;;;;5051221;28;45466;-70
2022/04/28 07:50:50;;;;;;;;;43.50;36.50;;;;;;;;5053459;28;45325;-71
2022/04/28 07:53:16;;;;;;;;;45.75;38.75;;;;;;;;5051484;28;45462;-70
2022/04/28 07:55:41;;;;;;;;;41.00;32.25;;;;;;;;5037269;28;48237;-71
2022/04/28 07:58:06;;;;;;;;;46.25;39.00;;;;;;;;5052151;28;45395;-71
2022/04/28 08:00:32;;;;;;;;;48.00;39.25;;;;;;;;5051283;28;45467;-72
2022/04/28 08:02:58;;;;;;;;;49.00;42.00;;;;;;;;5051932;28;45504;-69
2022/04/28 08:05:23;;;;;;;;;49.25;40.25;;;;;;;;5052649;28;47369;-70
2022/04/28 08:07:48;;;;;;;;;47.75;36.25;;;;;;;;5051446;28;45360;-70
2022/04/28 08:10:13;;;;;;;;;42.25;33.75;;;;;;;;5051769;28;45261;-73
2022/04/28 08:12:39;;;;;;;;;48.50;39.50;;;;;;;;5051460;28;45540;-73
2022/04/28 08:15:04;;;;;;;;;43.75;37.00;;;;;;;;5050313;28;45500;-73
2022/04/28 08:17:30;;;;;;;;;44.50;38.25;;;;;;;;5053305;28;45498;-72
2022/04/28 08:19:55;;;;;;;;;42.75;35.25;;;;;;;;5050419;28;45428;-71
2022/04/28 08:22:20;;;;;;;;;47.00;34.75;;;;;;;;5048348;28;45712;-71
2022/04/28 08:24:45;;;;;;;;;42.50;35.25;;;;;;;;5053407;28;46526;-71
2022/04/28 08:27:11;;;;;;;;;41.25;35.00;;;;;;;;5057777;28;45510;-69
2022/04/28 08:29:36;;;;;;;;;42.00;34.50;;;;;;;;5059902;28;45419;-71
2022/04/28 08:32:01;;;;;;;;;42.50;34.75;;;;;;;;5057308;28;45411;-70
2022/04/28 08:34:26;;;;;;;;;34.50;31.00;;;;;;;;5057696;28;46153;-71
2022/04/28 08:36:51;;;;;;;;;39.00;35.00;;;;;;;;5057577;28;45460;-70
2022/04/28 08:39:17;;;;;;;;;39.00;33.75;;;;;;;;5058004;28;45288;-71
2022/04/28 08:41:46;;;;;;;;;38.75;32.75;;;;;;;;5060158;28;45464;-70
2022/04/28 08:44:17;;;;;;;;;39.50;33.00;;;;;;;;5057987;28;45415;-71
2022/04/28 08:46:51;;;;;;;;;39.25;33.25;;;;;;;;5057429;28;45299;-70
2022/04/28 08:49:29;;;;;;;;;45.50;38.50;;;;;;;;5057395;28;45281;-72
2022/04/28 08:51:55;;;;;;;;;33.75;33.50;;;;;;;;5057448;28;45549;-71
2022/04/28 08:54:22;;;;;;;;;34.00;33.25;;;;;;;;5057641;28;45449;-72
2022/04/28 08:56:47;;;;;;;;;35.00;29.50;;;;;;;;5059099;28;45403;-71
2022/04/28 08:59:14;;;;;;;;;33.75;30.50;;;;;;;;5058094;28;45501;-70
2022/04/28 09:01:40;;;;;;;;;36.75;30.25;;;;;;;;5057635;28;45551;-70
2022/04/28 09:04:05;;;;;;;;;47.25;37.00;;;;;;;;5056924;28;46337;-71
2022/04/28 09:06:34;;;;;;;;;34.00;31.50;;;;;;;;5057103;28;45367;-71
2022/04/28 09:09:04;;;;;;;;;33.75;27.50;;;;;;;;5057501;28;45278;-72
2022/04/28 09:11:29;;;;;;;;;33.50;30.00;;;;;;;;5059492;28;45429;-71
2022/04/28 09:14:11;;;;;;;;;39.25;32.50;;;;;;;;5053929;28;47162;-71
2022/04/28 09:16:41;;;;;;;;;29.00;25.00;;;;;;;;5057090;28;45535;-71
2022/04/28 09:19:06;;;;;;;;;33.00;27.25;;;;;;;;5057017;28;45234;-72
2022/04/28 09:21:35;;;;;;;;;30.00;27.75;;;;;;;;5057178;28;45370;-72
2022/04/28 09:24:01;;;;;;;;;28.75;28.75;;;;;;;;5057851;28;46633;-72
2022/04/28 09:26:26;;;;;;;;;31.25;28.50;;;;;;;;5057898;28;45350;-71
2022/04/28 09:28:53;;;;;;;;;30.50;29.00;;;;;;;;5057707;28;46320;-70
2022/04/28 09:31:19;;;;;;;;;31.25;27.75;;;;;;;;5058164;28;45485;-70
2022/04/28 09:33:46;;;;;;;;;30.00;28.75;;;;;;;;5053716;28;45907;-70
2022/04/28 09:36:12;;;;;;;;;27.50;24.25;;;;;;;;5054348;28;45404;-72
2022/04/28 09:38:37;;;;;;;;;28.25;25.50;;;;;;;;5056611;28;45672;-70
2022/04/28 09:43:48;;;;;;;;;34.00;27.50;;;;;;;;5053896;28;45310;-70
2022/04/28 09:46:14;;;;;;;;;29.75;28.00;;;;;;;;5053990;28;45517;-71
2022/04/28 09:48:42;;;;;;;;;29.00;26.25;;;;;;;;5052814;28;45581;-72
2022/04/28 09:51:09;;;;;;;;;24.75;23.00;;;;;;;;5053979;28;45594;-70
2022/04/28 09:53:35;;;;;;;;;27.00;25.25;;;;;;;;5058526;28;46205;-72
2022/04/28 09:56:02;;;;;;;;;26.00;25.25;;;;;;;;5056080;28;45603;-72
2022/04/28 09:58:27;;;;;;;;;25.00;23.50;;;;;;;;5050651;28;45502;-72
2022/04/28 10:00:54;;;;;;;;;27.50;26.00;;;;;;;;5046575;28;45475;-70
2022/04/28 10:03:21;;;;;;;;;29.00;25.25;;;;;;;;5053111;28;45326;-69
2022/04/28 10:05:46;;;;;;;;;22.00;21.25;;;;;;;;5054647;28;45336;-70
2022/04/28 10:08:13;;;;;;;;;25.25;23.25;;;;;;;;5053696;28;45791;-69
2022/04/28 10:10:39;;;;;;;;;26.00;23.00;;;;;;;;5052050;28;45313;-69
2022/04/28 10:13:05;;;;;;;;;22.25;21.00;;;;;;;;5052257;28;46049;-69
2022/04/28 10:15:32;;;;;;;;;26.00;23.50;;;;;;;;5053579;28;45625;-69
2022/04/28 10:18:11;;;;;;;;;23.75;21.25;;;;;;;;5039323;28;45524;-70
2022/04/28 10:20:45;;;;;;;;;21.50;18.75;;;;;;;;5054238;28;45418;-71
2022/04/28 10:23:11;;;;;;;;;19.75;15.50;;;;;;;;5039435;28;45659;-71
2022/04/28 10:34:08;;;;;;;;;18.75;18.75;;;;;;;;5052661;28;45391;-71
2022/04/28 10:36:48;;;;;;;;;15.75;14.50;;;;;;;;5052823;28;45407;-70
2022/04/28 10:39:14;;;;;;;;;15.00;15.00;;;;;;;;5053543;28;45382;-72
2022/04/28 10:41:39;;;;;;;;;15.75;14.75;;;;;;;;5054979;28;45348;-71
2022/04/28 10:44:15;;;;;;;;;19.25;17.75;;;;;;;;5052163;28;45400;-71
2022/04/28 10:46:54;;;;;;;;;18.50;16.25;;;;;;;;5052390;28;45470;-72
2022/04/28 10:49:24;;;;;;;;;12.25;12.25;;;;;;;;5052488;28;45533;-71
2022/04/28 10:51:55;;;;;;;;;15.00;14.50;;;;;;;;5052970;28;45557;-69
2022/04/28 10:54:23;;;;;;;;;13.25;12.50;;;;;;;;5053019;28;47374;-69
2022/04/28 10:56:54;;;;;;;;;14.00;13.50;;;;;;;;5055132;28;45335;-70
2022/04/28 10:59:29;;;;;;;;;16.75;14.25;;;;;;;;5053941;28;45370;-70
2022/04/28 11:01:55;;;;;;;;;19.00;15.50;;;;;;;;5052514;28;45452;-70
2022/04/28 11:04:21;;;;;;;;;39.75;35.25;;;;;;;;5037741;28;45450;-71
2022/04/28 11:06:50;;;;;;;;;21.00;18.25;;;;;;;;5052530;28;45357;-72
2022/04/28 11:09:33;;;;;;;;;14.00;14.00;;;;;;;;5043149;28;45486;-71
2022/04/28 11:12:06;;;;;;;;;13.00;13.00;;;;;;;;5052918;28;46270;-70
2022/04/28 11:14:43;;;;;;;;;12.00;12.00;;;;;;;;5055716;28;46500;-72
2022/04/28 11:17:12;;;;;;;;;13.25;13.25;;;;;;;;5052744;28;45474;-71
2022/04/28 11:19:39;;;;;;;;;9.75;9.00;;;;;;;;5039621;28;45395;-70
2022/04/28 11:22:04;;;;;;;;;11.75;11.75;;;;;;;;5052149;28;45583;-70
2022/04/28 11:24:30;;;;;;;;;13.50;11.50;;;;;;;;5051335;28;46154;-71
2022/04/28 11:26:58;;;;;;;;;12.00;12.00;;;;;;;;5053306;28;45333;-72
2022/04/28 11:29:23;;;;;;;;;14.00;13.50;;;;;;;;5053378;28;45805;-72
2022/04/28 11:31:49;;;;;;;;;11.00;9.75;;;;;;;;5051019;28;45283;-71
2022/04/28 11:34:14;;;;;;;;;5.50;5.50;;;;;;;;5051482;28;47084;-71
2022/04/28 11:36:41;;;;;;;;;12.50;11.25;;;;;;;;5051972;28;45372;-71
2022/04/28 11:39:08;;;;;;;;;8.75;8.75;;;;;;;;5052102;28;45439;-71
2022/04/28 11:41:40;;;;;;;;;10.75;9.25;;;;;;;;5054383;28;45481;-72
2022/04/28 11:44:13;;;;;;;;;11.00;11.00;;;;;;;;5051419;28;46142;-71
2022/04/28 11:46:42;;;;;;;;;9.25;9.00;;;;;;;;5038007;28;45336;-69
2022/04/28 11:49:07;;;;;;;;;9.00;9.00;;;;;;;;5050691;28;45289;-71
2022/04/28 11:51:33;;;;;;;;;9.25;9.25;;;;;;;;5052717;28;45291;-72
2022/04/28 11:53:59;;;;;;;;;11.75;10.00;;;;;;;;5052262;28;46977;-73
2022/04/28 11:56:33;;;;;;;;;10.75;10.25;;;;;;;;5052468;28;45282;-71
2022/04/28 11:58:58;;;;;;;;;7.00;7.00;;;;;;;;5050977;28;45451;-71
2022/04/28 12:01:25;;;;;;;;;8.75;8.75;;;;;;;;5052454;28;45494;-72
2022/04/28 12:03:54;;;;;;;;;11.25;11.25;;;;;;;;5050443;28;46594;-70
2022/04/28 12:06:20;;;;;;;;;12.25;11.00;;;;;;;;5050891;28;47193;-72
2022/04/28 12:08:48;;;;;;;;;10.25;9.00;;;;;;;;5054672;28;45351;-72
2022/04/28 12:14:22;;;;;;;;;9.00;7.25;;;;;;;;5051069;28;45444;-71
2022/04/28 12:19:30;;;;;;;;;10.75;9.25;;;;;;;;5051784;28;45351;-71
2022/04/28 12:22:06;;;;;;;;;15.25;14.25;;;;;;;;5051575;28;45527;-72
2022/04/28 12:24:34;;;;;;;;;8.75;8.75;;;;;;;;5050743;28;48943;-72
2022/04/28 12:27:04;;;;;;;;;9.00;8.50;;;;;;;;5036060;28;45732;-71
2022/04/28 12:29:29;;;;;;;;;8.75;8.75;;;;;;;;5051792;28;45448;-72
2022/04/28 12:31:54;;;;;;;;;14.75;14.00;;;;;;;;5051652;28;45597;-72
2022/04/28 12:34:24;;;;;;;;;16.75;15.50;;;;;;;;5050898;28;45443;-72
2022/04/28 12:36:54;;;;;;;;;7.50;7.00;;;;;;;;5051411;28;45477;-71
2022/04/28 12:39:22;;;;;;;;;13.00;12.00;;;;;;;;5035892;28;45354;-71
2022/04/28 12:41:50;;;;;;;;;10.00;10.00;;;;;;;;5053001;28;45379;-71
2022/04/28 12:44:16;;;;;;;;;16.50;14.75;;;;;;;;5049081;28;46377;-71
2022/04/28 12:46:55;;;;;;;;;11.50;9.50;;;;;;;;5051109;28;45257;-71
2022/04/28 12:49:20;;;;;;;;;14.00;11.00;;;;;;;;5044578;28;45395;-71
2022/04/28 12:51:45;;;;;;;;;11.50;10.50;;;;;;;;5051498;28;45674;-71
2022/04/28 12:54:10;;;;;;;;;9.80;9.60;;;;;;;;5051670;28;46134;-72
2022/04/28 12:56:37;;;;;;;;;15.75;10.00;;;;;;;;5053383;28;45434;-71
2022/04/28 12:59:06;;;;;;;;;11.75;10.50;;;;;;;;5037628;28;45364;-71
2022/04/28 13:01:32;;;;;;;;;14.00;12.00;;;;;;;;5051743;28;45580;-72
2022/04/28 13:03:58;;;;;;;;;13.50;11.00;;;;;;;;5050121;28;46451;-72
2022/04/28 13:06:27;;;;;;;;;11.00;11.00;;;;;;;;5050664;28;45482;-71
2022/04/28 13:08:53;;;;;;;;;14.50;12.50;;;;;;;;5055237;28;45427;-72
2022/04/28 13:11:22;;;;;;;;;10.25;10.25;;;;;;;;5053377;28;45447;-71
2022/04/28 13:13:48;;;;;;;;;10.25;9.50;;;;;;;;5054493;28;46185;-71
2022/04/28 13:16:13;;;;;;;;;9.50;8.75;;;;;;;;5048172;28;45495;-71
2022/04/28 13:18:38;;;;;;;;;11.00;9.50;;;;;;;;5054695;28;45458;-71
2022/04/28 13:21:03;;;;;;;;;12.25;12.25;;;;;;;;5054319;28;45459;-71
2022/04/28 13:23:31;;;;;;;;;16.25;16.25;;;;;;;;5056083;28;46384;-71
2022/04/28 13:25:57;;;;;;;;;10.25;10.00;;;;;;;;5053597;28;45474;-72
2022/04/28 13:28:22;;;;;;;;;9.00;8.00;;;;;;;;5054281;28;45320;-72
2022/04/28 13:30:49;;;;;;;;;9.75;8.50;;;;;;;;5054385;28;45506;-72
2022/04/28 13:33:14;;;;;;;;;7.50;7.50;;;;;;;;5053642;28;47036;-71
2022/04/28 13:35:39;;;;;;;;;17.50;16.50;;;;;;;;5056208;28;45404;-71
2022/04/28 13:38:06;;;;;;;;;11.50;11.25;;;;;;;;5054033;28;45353;-71
2022/04/28 13:40:31;;;;;;;;;11.50;11.50;;;;;;;;5053962;28;45502;-71
2022/04/28 13:42:56;;;;;;;;;22.75;21.75;;;;;;;;5053821;28;45982;-71
2022/04/28 13:45:21;;;;;;;;;10.00;10.00;;;;;;;;5053631;28;45329;-70
2022/04/28 13:47:47;;;;;;;;;6.75;6.50;;;;;;;;5056254;28;45454;-70
2022/04/28 13:50:12;;;;;;;;;8.00;6.75;;;;;;;;5052788;28;45472;-70
2022/04/28 13:52:38;;;;;;;;;6.50;6.50;;;;;;;;5053912;28;46371;-70
2022/04/28 13:55:03;;;;;;;;;9.00;7.50;;;;;;;;5053056;28;45250;-72
2022/04/28 13:57:28;;;;;;;;;9.00;9.00;;;;;;;;5054927;28;45406;-72
2022/04/28 13:59:53;;;;;;;;;6.00;6.00;;;;;;;;5055021;28;45454;-70
2022/04/28 14:02:19;;;;;;;;;8.25;7.75;;;;;;;;5054338;28;46180;-72
2022/04/28 14:04:44;;;;;;;;;6.50;5.50;;;;;;;;5053888;28;45312;-71
2022/04/28 14:07:10;;;;;;;;;6.25;6.25;;;;;;;;5054103;28;45554;-71
2022/04/28 14:09:35;;;;;;;;;6.25;6.25;;;;;;;;5053581;28;45497;-72
2022/04/28 14:12:00;;;;;;;;;9.50;9.50;;;;;;;;5054023;28;45486;-72
2022/04/28 14:14:25;;;;;;;;;6.25;6.25;;;;;;;;5054962;28;45643;-71
2022/04/28 14:16:51;;;;;;;;;4.50;3.50;;;;;;;;5053813;28;45478;-72
2022/04/28 14:19:16;;;;;;;;;7.50;6.25;;;;;;;;5052760;28;45388;-73
2022/04/28 14:21:42;;;;;;;;;6.00;6.00;;;;;;;;5053832;28;45468;-73
2022/04/28 14:24:08;;;;;;;;;10.75;8.25;;;;;;;;5054758;28;45483;-72
2022/04/28 14:26:34;;;;;;;;;5.00;5.00;;;;;;;;5055627;28;45335;-71
2022/04/28 14:28:59;;;;;;;;;7.25;6.50;;;;;;;;5052997;28;45417;-72
2022/04/28 14:31:24;;;;;;;;;7.00;6.00;;;;;;;;5052556;28;47349;-72
2022/04/28 14:33:50;;;;;;;;;6.50;5.25;;;;;;;;5053013;28;45472;-71
2022/04/28 14:36:15;;;;;;;;;8.25;7.00;;;;;;;;5053905;28;45348;-73
2022/04/28 14:38:40;;;;;;;;;6.50;5.75;;;;;;;;5041307;28;45628;-70
2022/04/28 14:41:06;;;;;;;;;10.00;8.75;;;;;;;;5053128;28;46050;-70
2022/04/28 14:43:31;;;;;;;;;9.00;8.00;;;;;;;;5052749;28;45449;-70
2022/04/28 14:45:56;;;;;;;;;7.00;6.75;;;;;;;;5053870;28;45456;-70